Rafael Nuñez International Airport
SKCG : now visible

Airfield :











YOU CAN JOIN US ON...

 
LOGIN :

Register | Disclaimer

   EN    FR    IT 

 









Legend :    VFR   Marginal VFR   IFR   Intensive IFR   Very Intensive IFR
Visi :
Ceiling :
>= 8 km
>= 3000ft
5 to 8 km
1000 to 3000 ft
1500m to 5 km
500 to 1000 ft
800 to 1500m
200 to 500 ft
< 800m
< 200 ft
Symbols :   Thunderstorms  Fog  Heavy snow  Heavy precipitations  Wind > 20 kt






- Airport Elevation : 4 ft
- IATA code : CTG


SKCG - Rafael Nuñez International

CURRENT METAR :
  • 291300Z 31004KT 9999 SCT017 SCT070 28/26 A2990

EXPIRED METARs :
  • 291200Z 18004KT 9999 SCT017 SCT070 28/26 A2987

TAF TAF SKCG
Valid from the 29 at 12:00 until the 30 at 12:00 UTC


291030Z 2912/3012 34006KT 9999 FEW015 SCT090
PROB40 2913/2915 9000 DZ SCT017TCU
TEMPO 2916/2921 35012KT
PROB40 2921/2923 8000 RADZ SCT015CB TX32/2918Z TN25/3011Z
SKEC FIR / South America



MET'MAP, your aeronautical weather chart ! - Copyright ORBIFLY December 2007 - Disclaimer

ORBIFLY MET'MAP TEAM :

Programming & Development : Alexandra Zaïnal
Concept & original design : Baudouin d'Aumeries
Assistance for programming : Marc-Olivier Méhu
Technical & hardware support : Manuel Goepfert

Contact : metmap@orbifly.com




SOURCES & CREDITS :

   NOAA       Earth
Advisory